Airfield :
LOGIN :

Register | Disclaimer

   EN    FR    IT 

 










Legend :    VFR   Marginal VFR   IFR   Intensive IFR   Very Intensive IFR
Visi :
Ceiling :
>= 8 km
>= 3000ft
5 to 8 km
1000 to 3000 ft
1500m to 5 km
500 to 1000 ft
800 to 1500m
200 to 500 ft
< 800m
< 200 ft
Symbols :   Thunderstorms  Fog  Heavy snow  Heavy precipitations  Wind > 20 kt
SIGMETs :     Misc.  Thunderstorms  Icing  Turbulence  Mountain Waves  Volcanic Ashes






- Airport Elevation : 83 ft
- IATA code : LHR


EGLL - London Heathrow

CURRENT METAR :
  • 260650Z AUTO 15006KT 9999 SCT009 BKN021 BKN033 14/12 Q1011

EXPIRED METARs :
  • 260620Z AUTO 13006KT 9999 FEW009/// SCT019/// BKN027/// //////TCU 13/12 Q1011
  • 260550Z 12006KT 9999 FEW008 BKN016 BKN020 13/12 Q1011 TEMPO BKN008
  • 260520Z 11006KT 9999 SCT007 BKN025 BKN033 12/12 Q1011 TEMPO RA BKN008
  • 260450Z 11007KT 9999 FEW006 BKN034 12/12 Q1011 TEMPO RA BKN008
  • 260420Z 11006KT 9999 FEW006 BKN045 12/12 Q1011 TEMPO RA BKN008
  • 260350Z 10006KT 9999 -RA BKN045 12/12 Q1011 TEMPO RA
  • 260320Z 10005KT 9999 -RA BKN045 12/11 Q1011 RERA TEMPO RA
  • 260250Z 09005KT 9999 -RA NSC 12/11 Q1011 TEMPO RA
  • 260220Z 06002KT 9999 -RA NSC 12/11 Q1012 TEMPO RA
  • 260150Z AUTO 06004KT 9999 -RA //////TCU 12/11 Q1012 TEMPO RA

TAF TAF EGLL
Valid from the 26 at 06:00 until the 27 at 12:00 UTC


260455Z 2606/2712 15008KT 9999 SCT035
BECMG 2606/2609 22012KT
TEMPO 2606/2609 7000 RA BKN009
TEMPO 2609/2619 7000 SHRA
PROB30
TEMPO 2610/2617 24015G25KT 3000 +TSRA
TEMPO 2709/2712 7000 SHRA



MET'MAP, your aeronautical weather chart ! - Copyright ORBIFLY December 2007 - Disclaimer

ORBIFLY MET'MAP TEAM :

Programming & Development : Alexandra Zaïnal
Original concept : Baudouin d'Aumeries
Technical & hardware support : Manuel Goepfert
Assistance : Marc-Olivier Méhu




SOURCES & CREDITS :

   NOAA